Time;durP1;ratioP1;P1;durP2;ratioP2;P2;SDS_P1;SDS_P2;PMS_P1;PMS_P2;Temp;Humidity;BMP_temperature;BMP_pressure;BME280_temperature;BME280_humidity;BME280_pressure;Samples;Min_cycle;Max_cycle;Signal;HPM_P1;HPM_P2
2021/08/24 00:00:14;;;;;;;;;14.00;10.00;;;;;18.59;72.60;102159.41;5033781;28;46274;-76
2021/08/24 00:02:39;;;;;;;;;13.00;10.25;;;;;18.62;72.46;102148.56;5035304;28;45491;-77
2021/08/24 00:05:06;;;;;;;;;14.50;12.00;;;;;18.54;72.67;102129.50;5035125;28;45609;-77
2021/08/24 00:07:32;;;;;;;;;11.50;9.75;;;;;18.58;72.19;102144.34;5031072;28;45332;-76
2021/08/24 00:09:57;;;;;;;;;13.75;10.00;;;;;18.65;72.28;102151.94;5033822;28;45538;-76
2021/08/24 00:12:22;;;;;;;;;11.00;9.50;;;;;18.69;72.39;102147.34;5034656;28;45535;-76
2021/08/24 00:14:48;;;;;;;;;14.50;12.00;;;;;18.70;72.93;102144.59;5034117;28;45522;-76
2021/08/24 00:17:13;;;;;;;;;12.25;9.50;;;;;18.65;72.71;102132.44;5034677;28;53064;-77
2021/08/24 00:19:38;;;;;;;;;14.00;11.00;;;;;18.73;72.68;102143.56;5034790;28;46125;-76
2021/08/24 00:22:04;;;;;;;;;15.75;11.00;;;;;18.73;72.94;102146.22;5034450;28;47317;-76
2021/08/24 00:24:29;;;;;;;;;13.25;10.75;;;;;18.72;72.79;102139.19;5034561;28;45648;-76
2021/08/24 00:26:54;;;;;;;;;14.25;13.00;;;;;18.65;72.79;102130.66;5038619;28;45326;-76
2021/08/24 00:29:20;;;;;;;;;14.00;11.00;;;;;18.68;73.42;102140.28;5039230;28;53231;-76
2021/08/24 00:31:45;;;;;;;;;13.50;12.00;;;;;18.64;72.76;102136.91;5034095;28;45602;-76
2021/08/24 00:34:10;;;;;;;;;13.50;12.50;;;;;18.62;72.94;102127.28;5034834;28;45612;-76
2021/08/24 00:36:36;;;;;;;;;15.00;12.25;;;;;18.54;73.10;102126.84;5035016;28;45403;-76
2021/08/24 00:39:02;;;;;;;;;18.00;13.25;;;;;18.52;73.57;102126.91;5033271;28;45439;-77
2021/08/24 00:41:28;;;;;;;;;18.50;16.75;;;;;18.52;73.17;102134.91;5016211;28;45452;-75
2021/08/24 00:43:54;;;;;;;;;17.50;14.50;;;;;18.51;74.14;102135.84;5034676;28;45398;-76
2021/08/24 00:46:42;;;;;;;;;18.25;16.50;;;;;18.33;73.23;102108.44;5018694;28;45507;-76
2021/08/24 00:49:14;;;;;;;;;17.50;16.00;;;;;18.43;74.27;102133.63;5032550;28;46301;-76
2021/08/24 00:51:42;;;;;;;;;15.50;14.00;;;;;18.36;74.23;102123.38;5033990;28;45459;-77
2021/08/24 00:54:13;;;;;;;;;17.75;16.75;;;;;18.36;74.22;102124.22;5034787;28;45507;-75
2021/08/24 00:56:40;;;;;;;;;14.50;13.25;;;;;18.35;74.72;102137.63;5034009;28;45513;-77
2021/08/24 00:59:07;;;;;;;;;14.75;13.00;;;;;18.31;74.58;102130.72;5033594;28;45407;-76
2021/08/24 01:01:34;;;;;;;;;17.00;13.50;;;;;18.24;74.24;102117.75;5033582;28;45835;-76
2021/08/24 01:04:00;;;;;;;;;20.25;15.75;;;;;18.24;74.89;102116.91;5034308;28;45601;-76
2021/08/24 01:06:33;;;;;;;;;17.25;15.75;;;;;18.25;74.31;102123.94;5034118;28;45509;-76
2021/08/24 01:09:51;;;;;;;;;15.50;15.00;;;;;18.02;75.60;102095.91;5034298;28;46983;-76
2021/08/24 01:12:19;;;;;;;;;15.25;13.25;;;;;18.17;74.67;102124.34;4952761;28;45466;-78
2021/08/24 01:14:58;;;;;;;;;13.50;13.50;;;;;18.14;75.39;102124.50;4952637;28;45843;-76
2021/08/24 01:17:46;;;;;;;;;21.00;16.00;;;;;18.13;75.40;102128.13;4952677;28;45619;-76
2021/08/24 01:20:20;;;;;;;;;15.75;14.00;;;;;18.12;75.55;102122.88;4952243;28;46219;-76
2021/08/24 01:23:22;;;;;;;;;20.50;18.25;;;;;18.11;75.70;102115.81;4952351;28;45548;-77
2021/08/24 01:25:58;;;;;;;;;16.75;16.75;;;;;18.08;75.97;102116.84;4951819;28;45567;-76
2021/08/24 01:28:39;;;;;;;;;16.75;14.75;;;;;18.07;75.61;102120.47;4946305;28;45459;-77
2021/08/24 01:31:22;;;;;;;;;15.75;14.75;;;;;18.02;75.95;102117.19;4952249;28;45532;-77
2021/08/24 01:33:59;;;;;;;;;18.75;16.25;;;;;18.03;75.84;102121.56;4951954;28;45835;-77
2021/08/24 01:36:33;;;;;;;;;16.25;15.00;;;;;17.90;76.16;102101.84;4949920;28;45491;-76
2021/08/24 01:39:10;;;;;;;;;19.50;16.75;;;;;17.99;76.34;102115.53;4952214;28;45483;-76
2021/08/24 01:41:37;;;;;;;;;19.25;16.00;;;;;17.97;76.00;102113.91;4951577;28;46450;-76
2021/08/24 01:44:13;;;;;;;;;20.50;14.75;;;;;17.95;76.10;102113.09;4952810;28;45965;-76
2021/08/24 01:46:59;;;;;;;;;23.75;20.50;;;;;17.93;76.49;102115.00;4961841;28;45545;-75
2021/08/24 01:49:45;;;;;;;;;18.25;16.00;;;;;17.90;76.90;102112.47;5031670;28;45373;-76
2021/08/24 01:52:16;;;;;;;;;18.25;16.00;;;;;17.83;76.31;102095.97;5030192;28;45491;-77
2021/08/24 01:54:48;;;;;;;;;21.00;16.75;;;;;17.83;75.73;102100.44;5032169;28;45726;-77
2021/08/24 01:57:18;;;;;;;;;22.50;18.00;;;;;17.86;76.08;102108.28;5031952;28;47236;-76
2021/08/24 01:59:51;;;;;;;;;18.75;14.50;;;;;17.84;76.63;102115.44;5028713;28;45371;-76
2021/08/24 02:02:25;;;;;;;;;19.50;17.00;;;;;17.81;76.41;102111.16;5031578;28;45988;-76
2021/08/24 02:05:16;;;;;;;;;14.25;13.75;;;;;17.78;76.52;102107.78;5030083;28;45469;-77
2021/08/24 02:07:44;;;;;;;;;24.75;20.75;;;;;17.74;76.62;102112.41;5031915;28;45572;-76
2021/08/24 02:10:19;;;;;;;;;17.50;15.75;;;;;17.70;76.52;102114.34;5031703;28;45426;-76
2021/08/24 02:12:48;;;;;;;;;15.75;13.25;;;;;17.69;76.63;102114.41;5021401;28;48171;-76
2021/08/24 02:15:17;;;;;;;;;20.75;18.00;;;;;17.68;77.34;102115.34;5030802;28;45513;-76
2021/08/24 02:17:45;;;;;;;;;17.25;15.50;;;;;17.68;77.50;102115.34;5021700;28;45527;-76
2021/08/24 02:20:20;;;;;;;;;19.25;18.75;;;;;17.67;77.07;102117.16;5031135;28;45490;-77
2021/08/24 02:22:50;;;;;;;;;17.00;15.75;;;;;17.67;77.75;102113.63;5029101;28;45489;-76
2021/08/24 02:25:25;;;;;;;;;19.00;16.50;;;;;17.67;77.28;102122.47;5031792;28;45408;-76
2021/08/24 02:28:00;;;;;;;;;18.00;16.50;;;;;17.67;77.50;102111.84;5028384;28;45429;-77
2021/08/24 02:30:28;;;;;;;;;17.25;15.25;;;;;17.66;77.63;102112.78;5033334;28;45731;-76
2021/08/24 02:32:53;;;;;;;;;25.50;18.00;;;;;17.61;77.79;102104.16;5034576;28;45501;-76
2021/08/24 02:35:29;;;;;;;;;20.25;17.75;;;;;17.49;76.50;102091.50;5034664;28;45345;-76
2021/08/24 02:38:22;;;;;;;;;21.75;18.50;;;;;17.63;77.71;102110.25;5033658;28;45550;-77
2021/08/24 02:40:58;;;;;;;;;16.75;16.75;;;;;17.61;77.82;102113.94;5032670;28;45484;-76
2021/08/24 02:43:54;;;;;;;;;21.75;18.25;;;;;17.62;77.93;102113.00;5033308;28;46229;-77
2021/08/24 02:46:42;;;;;;;;;27.00;21.25;;;;;17.47;77.51;102091.56;5035310;28;45916;-75
2021/08/24 02:49:14;;;;;;;;;20.50;19.00;;;;;17.53;77.79;102106.34;5034569;28;45427;-77
2021/08/24 02:51:40;;;;;;;;;24.50;23.25;;;;;17.55;78.05;102117.78;5035117;28;45461;-77
2021/08/24 02:54:15;;;;;;;;;22.50;20.25;;;;;17.55;78.02;102123.09;5034591;28;46293;-75
2021/08/24 02:56:41;;;;;;;;;22.50;21.00;;;;;17.53;77.83;102119.63;5034485;28;45725;-77
2021/08/24 02:59:06;;;;;;;;;22.75;19.50;;;;;17.47;77.95;102109.31;5034478;28;45370;-75
2021/08/24 03:01:32;;;;;;;;;31.00;27.00;;;;;17.50;78.10;102117.16;5034143;28;45430;-76
2021/08/24 03:03:58;;;;;;;;;23.25;22.00;;;;;17.47;78.64;102110.16;5034244;28;46291;-77
2021/08/24 03:06:24;;;;;;;;;27.00;26.00;;;;;17.48;78.32;102117.19;5034401;28;45309;-77
2021/08/24 03:08:50;;;;;;;;;27.50;24.00;;;;;17.46;77.98;102107.59;5034614;28;45610;-75
2021/08/24 03:11:21;;;;;;;;;29.00;23.00;;;;;17.40;78.31;102100.78;5034104;28;45424;-75
2021/08/24 03:13:52;;;;;;;;;34.25;26.50;;;;;17.43;78.64;102108.59;5031016;28;46315;-76
2021/08/24 03:16:31;;;;;;;;;26.25;25.00;;;;;17.44;78.27;102114.81;5034080;28;45419;-76
2021/08/24 03:19:02;;;;;;;;;30.75;24.75;;;;;17.40;78.20;102103.44;5035016;28;45522;-75
2021/08/24 03:21:31;;;;;;;;;31.75;27.50;;;;;17.42;78.36;102116.66;5034533;28;45527;-75
2021/08/24 03:23:56;;;;;;;;;33.50;27.00;;;;;17.40;78.70;102107.91;5033867;28;45410;-75
2021/08/24 03:26:28;;;;;;;;;35.00;29.25;;;;;17.39;79.18;102106.19;5034029;28;45885;-76
2021/08/24 03:28:54;;;;;;;;;31.75;29.00;;;;;17.35;78.62;102105.47;5034006;28;46022;-75
2021/08/24 03:31:21;;;;;;;;;35.25;28.75;;;;;17.37;79.14;102105.38;5033004;28;45644;-77
2021/08/24 03:33:48;;;;;;;;;36.00;29.50;;;;;17.37;78.46;102102.72;5034618;28;46411;-77
2021/08/24 03:36:15;;;;;;;;;34.75;30.00;;;;;17.35;78.83;102107.28;5034048;28;45412;-76
2021/08/24 03:38:40;;;;;;;;;35.75;28.75;;;;;17.34;78.93;102109.06;5034269;28;45531;-76
2021/08/24 03:41:09;;;;;;;;;39.25;30.00;;;;;17.32;79.12;102110.06;5032615;28;45461;-76
2021/08/24 03:43:35;;;;;;;;;38.75;32.25;;;;;17.25;79.38;102096.25;5032204;28;45430;-75
2021/08/24 03:46:01;;;;;;;;;41.25;31.50;;;;;17.33;79.30;102111.78;5033403;28;45365;-76
2021/08/24 03:48:27;;;;;;;;;40.50;34.00;;;;;17.32;79.04;102112.72;5025381;28;45598;-76
2021/08/24 03:50:52;;;;;;;;;41.25;32.00;;;;;17.32;79.11;102112.72;5033283;28;45553;-76
2021/08/24 03:53:17;;;;;;;;;35.50;30.25;;;;;17.33;78.68;102114.44;5033580;28;46008;-77
2021/08/24 03:55:42;;;;;;;;;36.75;32.75;;;;;17.32;79.29;102116.25;5034573;28;45550;-77
2021/08/24 03:58:08;;;;;;;;;38.75;32.50;;;;;17.24;78.94;102091.00;5033409;28;45605;-77
2021/08/24 04:00:34;;;;;;;;;38.50;33.75;;;;;17.34;78.82;102119.72;5034049;28;45442;-76
2021/08/24 04:02:59;;;;;;;;;36.00;32.25;;;;;17.33;79.21;102117.09;5033447;28;45963;-76
2021/08/24 04:05:24;;;;;;;;;42.00;34.00;;;;;17.27;79.60;102107.63;5032705;28;45621;-76
2021/08/24 04:07:50;;;;;;;;;43.00;32.75;;;;;17.23;79.05;102098.13;5033320;28;45344;-76
2021/08/24 04:10:15;;;;;;;;;41.00;34.50;;;;;17.25;79.16;102111.31;5033641;28;45694;-76
2021/08/24 04:12:41;;;;;;;;;40.25;33.00;;;;;17.23;79.26;102114.06;5033132;28;46103;-76
2021/08/24 04:15:09;;;;;;;;;36.25;33.25;;;;;17.22;79.42;102114.97;5032196;28;45727;-76
2021/08/24 04:17:37;;;;;;;;;39.25;31.75;;;;;17.24;79.85;102118.44;5033240;28;45535;-76
2021/08/24 04:20:08;;;;;;;;;40.75;35.00;;;;;17.22;79.42;102114.97;5033245;28;45456;-76
2021/08/24 04:22:34;;;;;;;;;39.75;30.25;;;;;17.19;79.97;102115.13;5032921;28;46238;-77
2021/08/24 04:25:00;;;;;;;;;40.50;34.00;;;;;17.18;80.08;102124.91;5033383;28;45533;-76
2021/08/24 04:27:25;;;;;;;;;42.00;34.50;;;;;17.17;79.99;102117.00;5032504;28;45490;-76
2021/08/24 04:29:50;;;;;;;;;38.25;33.50;;;;;17.15;80.05;102121.53;5032542;28;51018;-76
2021/08/24 04:32:23;;;;;;;;;45.75;37.75;;;;;17.14;79.68;102133.09;5032348;28;46233;-76
2021/08/24 04:34:48;;;;;;;;;43.00;33.50;;;;;17.13;79.34;102126.06;5030979;28;45392;-76
2021/08/24 04:37:13;;;;;;;;;38.00;34.25;;;;;17.11;80.37;102134.09;5032936;28;47898;-76
2021/08/24 04:39:39;;;;;;;;;42.00;32.75;;;;;17.06;79.50;102124.63;5033417;28;45400;-76
2021/08/24 04:42:04;;;;;;;;;46.25;34.50;;;;;17.08;79.85;102128.09;5032638;28;46224;-76
2021/08/24 04:44:30;;;;;;;;;45.00;34.00;;;;;17.06;79.91;102135.25;5032419;28;45602;-76
2021/08/24 04:46:55;;;;;;;;;42.00;36.00;;;;;17.03;80.37;102133.63;5019573;28;45576;-75
2021/08/24 04:49:21;;;;;;;;;38.00;33.50;;;;;17.03;80.02;102130.97;5033052;28;45530;-76
2021/08/24 04:51:46;;;;;;;;;38.00;33.00;;;;;17.02;79.98;102133.66;5032951;28;45922;-77
2021/08/24 04:54:11;;;;;;;;;44.50;34.75;;;;;16.95;80.11;102127.78;5032517;28;45492;-76
2021/08/24 04:56:37;;;;;;;;;42.67;33.33;;;;;17.00;80.76;102139.06;5032383;28;58030;-77
2021/08/24 04:59:02;;;;;;;;;36.50;31.25;;;;;16.98;80.01;102138.28;5031927;28;45571;-76
2021/08/24 05:01:27;;;;;;;;;47.50;35.00;;;;;16.92;80.26;102126.16;5032639;28;45933;-77
2021/08/24 05:03:53;;;;;;;;;40.00;33.00;;;;;16.98;80.21;102140.09;5032723;28;45503;-76
2021/08/24 05:06:18;;;;;;;;;43.00;34.00;;;;;16.95;80.16;102141.06;5032504;28;45470;-76
2021/08/24 05:08:43;;;;;;;;;41.00;34.00;;;;;16.92;80.24;102139.44;5033568;28;45610;-78
2021/08/24 05:11:09;;;;;;;;;39.50;32.75;;;;;16.99;80.05;102147.09;5031994;28;46526;-76
2021/08/24 05:13:34;;;;;;;;;39.00;34.00;;;;;16.99;80.12;102144.44;5031076;28;45737;-76
2021/08/24 05:16:05;;;;;;;;;38.00;33.75;;;;;17.00;80.01;102140.84;5032846;28;45399;-77
2021/08/24 05:18:30;;;;;;;;;38.25;34.75;;;;;17.01;80.09;102145.22;5032183;28;45387;-76
2021/08/24 05:21:07;;;;;;;;;46.00;37.25;;;;;16.98;80.34;102145.38;5031938;28;46107;-76
2021/08/24 05:23:33;;;;;;;;;40.50;34.75;;;;;17.01;80.56;102151.41;5030384;28;45439;-76
2021/08/24 05:25:59;;;;;;;;;45.75;35.00;;;;;17.04;80.04;102155.72;5032856;28;45504;-76
2021/08/24 05:28:25;;;;;;;;;40.75;34.00;;;;;17.04;80.03;102142.44;5031651;28;45559;-76
2021/08/24 05:30:50;;;;;;;;;37.75;33.75;;;;;17.06;80.37;102152.03;5032140;28;46081;-77
2021/08/24 05:33:16;;;;;;;;;39.50;34.00;;;;;17.08;80.11;102152.84;5032660;28;54435;-76
2021/08/24 05:35:41;;;;;;;;;42.00;33.50;;;;;16.93;79.97;102130.53;5032705;28;45328;-76
2021/08/24 05:38:07;;;;;;;;;43.50;34.25;;;;;17.13;80.08;102163.25;5031397;28;45473;-75
2021/08/24 05:40:32;;;;;;;;;44.75;35.75;;;;;17.07;79.71;102150.25;5031541;28;51068;-76
2021/08/24 05:42:57;;;;;;;;;36.75;33.25;;;;;17.10;80.13;102147.47;5021132;28;45377;-78
2021/08/24 05:45:23;;;;;;;;;40.50;33.25;;;;;17.21;80.31;102161.06;5031958;28;45447;-76
2021/08/24 05:47:48;;;;;;;;;40.75;33.50;;;;;17.22;79.78;102155.69;5031941;28;45529;-76
2021/08/24 05:50:14;;;;;;;;;39.75;33.75;;;;;17.28;79.93;102166.94;5031683;28;45459;-76
2021/08/24 05:52:39;;;;;;;;;41.00;33.25;;;;;17.27;79.60;102152.81;5032027;28;45499;-76
2021/08/24 05:55:06;;;;;;;;;38.25;31.25;;;;;17.35;79.72;102155.09;5019651;28;45459;-76
2021/08/24 05:57:31;;;;;;;;;39.50;31.75;;;;;17.30;79.56;102144.69;5032091;28;45471;-76
2021/08/24 05:59:57;;;;;;;;;38.75;33.50;;;;;17.36;79.50;102148.84;5031701;28;45417;-76
2021/08/24 06:02:22;;;;;;;;;39.00;33.25;;;;;17.47;79.09;102159.81;5031797;28;45416;-75
2021/08/24 06:04:47;;;;;;;;;40.25;34.25;;;;;17.53;79.12;102166.63;5033820;28;45370;-76
2021/08/24 06:07:13;;;;;;;;;42.00;34.00;;;;;17.58;78.87;102169.91;5035040;28;45775;-75
2021/08/24 06:09:39;;;;;;;;;37.00;33.00;;;;;17.62;78.81;102175.00;5035677;28;45952;-76
2021/08/24 06:12:04;;;;;;;;;37.00;33.00;;;;;17.67;78.75;102175.63;5034934;28;45471;-75
2021/08/24 06:14:30;;;;;;;;;45.25;35.50;;;;;17.73;78.91;102174.50;5035064;28;45679;-75
2021/08/24 06:16:57;;;;;;;;;38.75;30.75;;;;;17.72;78.60;102159.47;5034519;28;45380;-77
2021/08/24 06:19:24;;;;;;;;;37.50;32.00;;;;;17.82;78.55;102165.22;5034809;28;46162;-77
2021/08/24 06:21:50;;;;;;;;;40.75;33.50;;;;;17.92;78.41;102162.00;5023965;28;45802;-76
2021/08/24 06:24:15;;;;;;;;;40.50;33.00;;;;;18.00;78.06;102165.13;5035257;28;46376;-75
2021/08/24 06:26:44;;;;;;;;;42.50;32.75;;;;;18.09;78.23;102176.25;5034702;28;45477;-77
2021/08/24 06:29:11;;;;;;;;;38.25;31.50;;;;;18.14;78.10;102168.88;5034600;28;45449;-77
2021/08/24 06:31:39;;;;;;;;;35.75;31.25;;;;;18.20;77.61;102168.56;5035212;28;46243;-76
2021/08/24 06:34:10;;;;;;;;;38.25;31.50;;;;;18.24;77.01;102168.31;5035254;28;45461;-76
2021/08/24 06:36:36;;;;;;;;;36.25;31.50;;;;;18.29;77.37;102165.41;5033960;28;46306;-79
2021/08/24 06:39:03;;;;;;;;;36.50;32.00;;;;;18.37;77.14;102175.66;5034181;28;46915;-77
2021/08/24 06:41:29;;;;;;;;;37.25;32.00;;;;;18.46;76.93;102172.50;5034459;28;45627;-77
2021/08/24 06:43:54;;;;;;;;;41.25;32.25;;;;;18.54;76.49;102170.31;5035131;28;45428;-74
2021/08/24 06:46:19;;;;;;;;;39.00;32.75;;;;;18.63;76.51;102172.44;5034831;28;45371;-75
2021/08/24 06:48:45;;;;;;;;;40.00;32.50;;;;;18.73;76.21;102172.84;5034826;28;45426;-76
2021/08/24 06:51:10;;;;;;;;;30.75;27.25;;;;;18.82;76.12;102175.03;5034676;28;56506;-77
2021/08/24 06:53:41;;;;;;;;;33.50;30.00;;;;;18.89;75.60;102168.41;5034769;28;45477;-76
2021/08/24 06:56:06;;;;;;;;;38.50;32.25;;;;;18.94;75.52;102161.00;5031683;28;45280;-76
2021/08/24 06:58:32;;;;;;;;;32.50;30.00;;;;;19.05;75.42;102157.75;5034449;28;45485;-73
2021/08/24 07:00:57;;;;;;;;;34.25;30.50;;;;;19.20;75.32;102167.56;5035612;28;47245;-73
2021/08/24 07:03:22;;;;;;;;;29.00;28.00;;;;;19.38;75.32;102176.31;5037297;28;45407;-74
2021/08/24 07:05:49;;;;;;;;;34.00;30.00;;;;;19.46;74.25;102165.22;5033921;28;45503;-74
2021/08/24 07:08:15;;;;;;;;;35.25;30.00;;;;;19.56;73.87;102164.59;5035089;28;46264;-73
2021/08/24 07:10:41;;;;;;;;;35.00;30.50;;;;;19.71;74.03;102164.69;5033792;28;45846;-73
2021/08/24 07:13:06;;;;;;;;;34.50;30.00;;;;;19.80;74.08;102174.81;5034480;28;45375;-74
2021/08/24 07:15:33;;;;;;;;;33.75;30.00;;;;;19.87;73.15;102173.50;5034226;28;45310;-73
2021/08/24 07:17:59;;;;;;;;;31.75;28.75;;;;;19.94;73.11;102173.97;5033873;28;46125;-73
2021/08/24 07:20:25;;;;;;;;;32.00;29.75;;;;;20.01;72.76;102170.88;5033797;28;45581;-74
2021/08/24 07:22:51;;;;;;;;;32.75;27.50;;;;;20.10;72.70;102157.91;5036720;28;47762;-74
2021/08/24 07:25:23;;;;;;;;;28.00;24.00;;;;;20.26;72.45;102172.06;5035152;28;45705;-74
2021/08/24 07:27:48;;;;;;;;;27.75;26.25;;;;;20.41;72.55;102168.47;5034960;28;46445;-74
2021/08/24 07:30:16;;;;;;;;;34.25;29.25;;;;;20.48;71.66;102172.50;5033904;28;45440;-74
2021/08/24 07:32:41;;;;;;;;;32.25;28.25;;;;;20.56;71.41;102170.19;5034310;28;45472;-73
2021/08/24 07:35:07;;;;;;;;;30.25;27.25;;;;;20.55;71.40;102151.59;5034225;28;46047;-74
2021/08/24 07:37:33;;;;;;;;;31.00;28.75;;;;;20.73;70.63;102171.81;5033063;28;46141;-74
2021/08/24 07:39:58;;;;;;;;;32.00;26.25;;;;;20.83;70.99;102174.78;5034304;28;45512;-76
2021/08/24 07:42:24;;;;;;;;;35.00;29.75;;;;;20.88;70.49;102163.78;5034777;28;50857;-76
2021/08/24 07:44:49;;;;;;;;;27.75;25.25;;;;;20.98;69.94;102172.91;5022964;28;45491;-76
2021/08/24 07:47:15;;;;;;;;;29.00;26.75;;;;;21.07;69.84;102170.53;5033409;28;60765;-76
2021/08/24 07:49:40;;;;;;;;;33.50;27.00;;;;;21.17;69.42;102162.78;5033872;28;45747;-75
2021/08/24 07:52:09;;;;;;;;;34.50;26.00;;;;;21.23;69.78;102164.19;5033837;28;45316;-76
2021/08/24 07:54:35;;;;;;;;;27.75;23.00;;;;;21.34;68.85;102170.56;5033159;28;45299;-76
2021/08/24 07:57:00;;;;;;;;;27.25;25.75;;;;;21.52;68.32;102173.88;5033028;28;46093;-76
2021/08/24 07:59:25;;;;;;;;;26.25;24.00;;;;;21.64;68.06;102164.16;5030217;28;45476;-76
2021/08/24 08:01:54;;;;;;;;;27.25;25.00;;;;;21.74;67.92;102161.72;5034112;28;45292;-77
2021/08/24 08:04:22;;;;;;;;;28.50;20.25;;;;;21.88;67.19;102170.53;5033437;28;45556;-77
2021/08/24 08:06:47;;;;;;;;;19.00;17.75;;;;;22.03;66.85;102173.09;5038128;28;45467;-78
2021/08/24 08:09:13;;;;;;;;;18.75;17.75;;;;;22.16;66.52;102162.47;5036773;28;46385;-76
2021/08/24 08:11:40;;;;;;;;;20.00;18.00;;;;;22.30;66.77;102167.72;5038337;28;45669;-76
2021/08/24 08:14:07;;;;;;;;;20.75;18.00;;;;;22.41;66.04;102159.78;5034957;28;45364;-76
2021/08/24 08:16:33;;;;;;;;;20.75;18.25;;;;;22.58;65.88;102164.81;5038599;28;47215;-77
2021/08/24 08:18:58;;;;;;;;;17.50;17.50;;;;;22.81;66.10;102170.34;5034537;28;45444;-75
2021/08/24 08:21:23;;;;;;;;;16.75;16.25;;;;;22.74;64.78;102124.38;5035841;28;45400;-78
2021/08/24 08:23:49;;;;;;;;;16.00;16.00;;;;;23.10;64.41;102170.94;5039580;28;45461;-78
2021/08/24 08:26:15;;;;;;;;;16.50;16.50;;;;;23.26;64.22;102176.03;5035578;28;46440;-78
2021/08/24 08:28:40;;;;;;;;;17.25;16.00;;;;;23.40;63.45;102157.09;5038638;28;45396;-76
2021/08/24 08:31:09;;;;;;;;;21.50;16.75;;;;;23.52;63.32;102150.81;5041082;28;45593;-79
2021/08/24 08:33:35;;;;;;;;;17.50;15.75;;;;;24.40;63.05;102170.00;5017693;28;45431;-76
2021/08/24 08:36:00;;;;;;;;;17.25;14.25;;;;;25.91;60.40;102172.06;5035510;28;46260;-79
2021/08/24 08:38:26;;;;;;;;;18.50;15.00;;;;;26.84;57.97;102168.47;5033843;28;52257;-78
2021/08/24 08:41:01;;;;;;;;;16.00;15.25;;;;;27.85;57.13;102170.03;5036903;28;46580;-76
2021/08/24 08:43:48;;;;;;;;;16.00;13.00;;;;;30.47;57.43;102164.66;5042054;28;46062;-76
2021/08/24 08:46:29;;;;;;;;;12.75;11.50;;;;;32.63;52.73;102169.00;5037063;28;46331;-76
2021/08/24 08:48:54;;;;;;;;;14.00;12.00;;;;;33.86;48.63;102179.13;5030852;28;45405;-77
2021/08/24 08:51:47;;;;;;;;;13.33;12.33;;;;;35.39;45.72;102177.44;5034046;28;45418;-77
2021/08/24 08:54:27;;;;;;;;;12.75;11.75;;;;;36.56;42.19;102183.25;5034750;28;45438;-76
2021/08/24 08:57:11;;;;;;;;;13.25;12.50;;;;;37.99;41.32;102163.97;5033230;28;46156;-76
2021/08/24 08:59:55;;;;;;;;;11.00;11.00;;;;;39.76;38.48;102182.63;5032846;28;45427;-75
2021/08/24 09:02:35;;;;;;;;;12.00;11.00;;;;;41.18;35.13;102172.31;5033178;28;45892;-75
2021/08/24 09:05:03;;;;;;;;;7.50;7.50;;;;;42.16;34.85;102175.56;5032210;28;45579;-75
2021/08/24 09:07:42;;;;;;;;;7.25;7.25;;;;;42.40;33.06;102179.19;5034488;28;45435;-74
2021/08/24 09:10:15;;;;;;;;;9.00;7.25;;;;;41.62;33.56;102181.19;5031264;28;45316;-75
2021/08/24 09:12:43;;;;;;;;;7.00;6.75;;;;;40.63;34.90;102177.09;5033706;28;45607;-75
2021/08/24 09:15:19;;;;;;;;;9.25;8.50;;;;;39.69;32.78;102186.53;5032841;28;45404;-75
2021/08/24 09:17:46;;;;;;;;;9.00;7.00;;;;;39.07;32.97;102178.84;5032917;28;46203;-76
2021/08/24 09:20:21;;;;;;;;;7.75;6.25;;;;;38.42;33.25;102168.97;5033250;28;45384;-76
2021/08/24 09:22:47;;;;;;;;;9.00;8.00;;;;;37.57;33.93;102166.94;5033980;28;45717;-75
2021/08/24 09:25:23;;;;;;;;;6.50;5.25;;;;;37.08;34.29;102170.84;5033621;28;45479;-75
2021/08/24 09:28:01;;;;;;;;;5.75;5.75;;;;;36.63;33.78;102169.59;5016058;28;47049;-75
2021/08/24 09:30:27;;;;;;;;;7.25;5.25;;;;;36.16;34.66;102176.66;5032881;28;45619;-76
2021/08/24 09:32:58;;;;;;;;;7.00;6.00;;;;;35.79;34.25;102175.94;5037514;28;45475;-75
2021/08/24 09:35:42;;;;;;;;;5.00;5.00;;;;;35.54;34.64;102178.25;5030957;28;45763;-76
2021/08/24 09:38:16;;;;;;;;;7.25;5.25;;;;;35.34;34.68;102176.34;5033490;28;47553;-75
2021/08/24 09:40:46;;;;;;;;;5.25;5.25;;;;;35.12;34.52;102161.81;5036984;28;45885;-75
2021/08/24 09:43:23;;;;;;;;;7.75;6.00;;;;;34.88;35.79;102158.38;5032808;28;45648;-76
2021/08/24 09:46:01;;;;;;;;;5.75;5.75;;;;;34.67;35.63;102166.53;5033660;28;46440;-75
2021/08/24 09:48:29;;;;;;;;;7.00;5.75;;;;;34.38;35.28;102149.09;5032737;28;45473;-75
2021/08/24 09:51:17;;;;;;;;;4.50;4.50;;;;;34.25;34.82;102151.66;5032591;28;45902;-75
2021/08/24 09:53:42;;;;;;;;;8.25;6.75;;;;;34.13;35.33;102147.69;5031372;28;45456;-75
2021/08/24 09:56:12;;;;;;;;;7.25;5.50;;;;;33.89;34.75;102159.66;5038169;28;45766;-77
2021/08/24 09:58:43;;;;;;;;;6.00;4.00;;;;;33.57;34.69;102111.72;5037752;28;46227;-76
2021/08/24 10:01:13;;;;;;;;;5.25;5.25;;;;;33.72;34.41;102131.69;5032290;28;45322;-76
2021/08/24 10:03:44;;;;;;;;;4.00;3.50;;;;;33.80;36.24;102150.72;5034549;28;45462;-76
2021/08/24 10:06:29;;;;;;;;;3.50;3.50;;;;;33.86;34.73;102141.78;5034773;28;45759;-76
2021/08/24 10:09:10;;;;;;;;;5.00;5.00;;;;;34.06;34.66;102135.81;5027749;28;48463;-75
2021/08/24 10:11:36;;;;;;;;;5.00;4.25;;;;;34.44;33.32;102150.22;5039257;28;45837;-77
2021/08/24 10:14:12;;;;;;;;;6.50;4.75;;;;;34.87;33.56;102137.53;5045018;28;45858;-75
2021/08/24 10:16:44;;;;;;;;;6.00;5.00;;;;;35.30;31.28;102143.09;5033357;28;45505;-75
2021/08/24 10:19:12;;;;;;;;;3.50;3.50;;;;;35.58;32.42;102151.38;5032519;28;45620;-76
2021/08/24 10:21:44;;;;;;;;;4.75;4.25;;;;;35.20;32.01;102145.31;5018376;28;45618;-75
2021/08/24 10:24:13;;;;;;;;;7.00;4.00;;;;;34.48;31.99;102138.75;5044812;28;45599;-75
2021/08/24 10:26:41;;;;;;;;;4.25;4.25;;;;;33.35;31.94;102132.50;5042630;28;45500;-75
2021/08/24 10:29:13;;;;;;;;;6.00;4.50;;;;;32.66;33.60;102124.22;5045977;28;46461;-76
2021/08/24 10:31:48;;;;;;;;;5.00;5.00;;;;;32.45;33.35;102127.53;5030518;28;45714;-76
2021/08/24 10:34:31;;;;;;;;;5.25;5.25;;;;;32.12;33.54;102133.06;5031427;28;45715;-76
2021/08/24 10:37:13;;;;;;;;;5.00;2.75;;;;;31.96;33.59;102135.81;5029939;28;45520;-75
2021/08/24 10:39:39;;;;;;;;;3.50;3.50;;;;;31.90;34.21;102121.06;5039350;28;47198;-75
2021/08/24 10:42:24;;;;;;;;;5.00;3.25;;;;;31.65;32.63;102124.78;5036010;28;45507;-76
2021/08/24 10:45:18;;;;;;;;;3.00;3.00;;;;;30.92;33.81;102111.97;5037159;28;45333;-75
2021/08/24 10:47:54;;;;;;;;;7.50;6.75;;;;;30.71;32.94;102134.13;5035554;28;45604;-73
2021/08/24 10:50:23;;;;;;;;;9.75;9.00;;;;;30.35;33.59;102126.13;5035761;28;46230;-74
2021/08/24 10:53:03;;;;;;;;;7.75;7.25;;;;;30.35;33.35;102120.69;5031141;28;45689;-78
2021/08/24 10:55:34;;;;;;;;;17.00;15.00;;;;;30.27;33.90;102117.09;5017997;28;45613;-75
2021/08/24 10:58:09;;;;;;;;;4.75;4.00;;;;;30.46;33.60;102125.00;5038454;28;45832;-70
2021/08/24 11:00:42;;;;;;;;;5.50;5.50;;;;;30.63;33.07;102137.59;5032112;28;47151;-71
2021/08/24 11:03:32;;;;;;;;;4.00;4.00;;;;;30.58;32.67;102130.97;5030561;28;45760;-73
2021/08/24 11:06:26;;;;;;;;;5.25;5.25;;;;;30.47;33.42;102136.69;5030822;28;45822;-73
2021/08/24 11:09:19;;;;;;;;;4.00;4.00;;;;;30.24;33.45;102122.84;5026474;28;45486;-74
2021/08/24 11:11:55;;;;;;;;;4.75;4.00;;;;;29.68;34.10;102127.69;5030480;28;45518;-73
2021/08/24 11:14:23;;;;;;;;;3.50;3.50;;;;;29.44;33.89;102117.47;5011489;28;45896;-74
2021/08/24 11:17:12;;;;;;;;;3.75;3.75;;;;;29.24;34.38;102113.25;5014451;28;45914;-74
2021/08/24 11:19:56;;;;;;;;;4.00;4.00;;;;;29.50;34.69;102118.72;5032426;28;45468;-73
2021/08/24 11:22:57;;;;;;;;;6.00;4.25;;;;;29.87;34.88;102113.97;5015130;28;45452;-73
2021/08/24 11:25:44;;;;;;;;;4.00;4.00;;;;;30.32;34.40;102112.88;4931596;28;45520;-75